Nagasaki Maru — 8KYO — position and weather

sailwx.info

Track history (hours):
 
Tides and Currents Weather Stations Pressure Air Temp Water Temp Dewpoint Dewpoint Depression Visibility Wind Speed Wind Dir Waves Ship Positions

Oceanographic research ship Nagasaki Maru (Japan)

Detailed information on ship capabilities available from University of Delaware's Ocean Information Center.

Last reported at 2020-Jan-10 16:30 UTC. Time now 2020-Jan-22 08:55 UTC.
Position N 33°43' E 129°60'.
Warning: this ship's position is 11 days out of date.

Length 63 m; beam 11 m.

Type: Fishing. MMSI: 431397000.

Date/timePositionNaut miles runAvg speedWind from/ knotsBaromVisibWave heightAir tempDewpointWater temp
2020-Jan-10 16:30N 33°43' E 129°60'11 9.2
2020-Jan-10 15:15N 33°39' E 129°47'117 8.5
2020-Jan-10 01:30N 31°47' E 129°08'3210.5
2020-Jan-09 22:30N 31°16' E 129°00'  
2020-Jan-07 14:46N 28°30' E 129°43'0 0.0
2020-Jan-07 13:46N 28°30' E 129°43'0 0.0
2020-Jan-07 12:16N 28°30' E 129°43'0 0.0
2020-Jan-07 11:16N 28°30' E 129°43'0 0.0
2020-Jan-07 10:16N 28°30' E 129°43'0 0.0
2020-Jan-07 09:16N 28°30' E 129°43'7 4.3
2020-Jan-07 07:46N 28°31' E 129°36'810.5
2020-Jan-07 07:01N 28°24' E 129°30'1 0.7
2020-Jan-07 06:01N 28°24' E 129°30'0 0.0
2020-Jan-07 05:16N 28°24' E 129°30'0 0.0
2020-Jan-07 03:46N 28°24' E 129°30'0 0.0
2020-Jan-07 02:46N 28°24' E 129°30'0 0.0
2020-Jan-07 02:16N 28°24' E 129°30'0 0.0
2020-Jan-07 01:46N 28°24' E 129°30'0 0.0
2020-Jan-07 01:00N 28°24' E 129°30'0 0.0
2020-Jan-07 00:30N 28°24' E 129°30'0 0.0
2020-Jan-06 23:31N 28°24' E 129°30'0 0.0
2020-Jan-06 23:00N 28°24' E 129°30'0 0.0
2020-Jan-06 20:45N 28°24' E 129°30'0 0.0
2020-Jan-06 19:15N 28°24' E 129°30'0 0.0
2020-Jan-06 19:00N 28°24' E 129°30'0 0.0
2020-Jan-06 16:30N 28°24' E 129°30'0 0.0
2020-Jan-06 15:45N 28°24' E 129°30'0 0.0
2020-Jan-06 14:46N 28°24' E 129°30'0 0.0
2020-Jan-06 08:31N 28°24' E 129°30'0 0.0
2020-Jan-05 23:17N 28°24' E 129°30'0 0.0
2020-Jan-05 22:47N 28°24' E 129°30'0 0.0
2020-Jan-05 21:31N 28°24' E 129°30'0 0.0
2020-Jan-05 14:46N 28°24' E 129°30'0 0.0
2020-Jan-05 12:46N 28°24' E 129°30'0 0.0
2020-Jan-05 11:46N 28°24' E 129°30'0 0.0
2020-Jan-05 10:16N 28°24' E 129°30'0 0.0
2020-Jan-05 09:16N 28°24' E 129°30'0 0.0
2020-Jan-05 08:46N 28°24' E 129°30'0 0.0
2020-Jan-05 07:16N 28°24' E 129°30'0 0.0
2020-Jan-05 06:46N 28°24' E 129°30'0 0.0
2020-Jan-05 05:46N 28°24' E 129°30'0 0.0
2020-Jan-05 05:16N 28°24' E 129°30'0 0.0
2020-Jan-04 20:31N 28°24' E 129°30'0 0.0
2020-Jan-04 20:16N 28°24' E 129°30'0 0.0
2020-Jan-04 19:01N 28°24' E 129°30'0 0.0
2020-Jan-04 16:46N 28°24' E 129°30'0 0.0
2020-Jan-04 15:32N 28°24' E 129°30'0 0.0
2020-Jan-04 14:46N 28°24' E 129°30'0 0.0
2020-Jan-04 09:47N 28°24' E 129°30'0 0.0
2020-Jan-04 08:01N 28°24' E 129°30'0 0.0
2020-Jan-04 07:31N 28°24' E 129°30'0 0.0
2020-Jan-04 06:46N 28°24' E 129°30'0 0.0
2020-Jan-04 04:32N 28°24' E 129°30'0 0.0
2020-Jan-04 04:16N 28°24' E 129°30'0 0.0
2020-Jan-04 02:32N 28°24' E 129°30'0 0.0
2020-Jan-03 20:46N 28°24' E 129°30'0 0.0
2020-Jan-03 18:46N 28°24' E 129°30'0 0.0
2020-Jan-03 13:16N 28°24' E 129°30'0 0.0
2020-Jan-03 11:31N 28°24' E 129°30'0 0.0
2020-Jan-03 10:01N 28°24' E 129°30'0 0.0
2020-Jan-03 08:46N 28°24' E 129°30'0 0.0
2020-Jan-03 07:16N 28°24' E 129°30'0 0.0
2020-Jan-03 05:01N 28°24' E 129°30'0 0.0
2020-Jan-03 03:31N 28°24' E 129°30'0 0.0
2020-Jan-02 23:46N 28°24' E 129°30'0 0.0
2020-Jan-02 21:01N 28°24' E 129°30'0 0.0
2020-Jan-02 20:46N 28°24' E 129°30'0 0.0
2020-Jan-02 20:00N 28°24' E 129°30'0 0.0
2020-Jan-02 14:01N 28°24' E 129°30'0 0.0
2020-Jan-02 13:31N 28°24' E 129°30'0 0.0
2020-Jan-02 10:16N 28°24' E 129°30'0 0.0
2020-Jan-02 07:31N 28°24' E 129°30'0 0.0
2020-Jan-02 07:01N 28°24' E 129°30'0 0.0
2020-Jan-02 05:01N 28°24' E 129°30'0 0.0
2020-Jan-02 00:16N 28°24' E 129°30'1 0.1
2020-Jan-01 20:31N 28°23' E 129°30'0 0.0
2020-Jan-01 19:01N 28°23' E 129°30'0 0.0
2020-Jan-01 18:16N 28°23' E 129°30'0 0.0
2020-Jan-01 17:46N 28°23' E 129°30'0 0.0
2020-Jan-01 14:46N 28°23' E 129°30'0 0.0
2020-Jan-01 12:31N 28°23' E 129°30'0 0.0
2020-Jan-01 11:31N 28°23' E 129°30'0 0.0
2020-Jan-01 11:16N 28°23' E 129°30'0 0.0
2020-Jan-01 09:31N 28°23' E 129°30'0 0.0
2020-Jan-01 08:16N 28°23' E 129°30'0 0.0
2020-Jan-01 07:16N 28°23' E 129°30'0 0.0
2020-Jan-01 03:16N 28°23' E 129°30'0 0.0
2020-Jan-01 02:01N 28°23' E 129°30'0 0.0
2019-Dec-31 23:30N 28°23' E 129°30'0 0.0
2019-Dec-31 22:00N 28°23' E 129°30'0 0.0
2019-Dec-31 21:00N 28°23' E 129°30'0 0.0
2019-Dec-31 20:30N 28°23' E 129°30'0 0.0
2019-Dec-31 18:30N 28°23' E 129°30'0 0.0
2019-Dec-31 18:00N 28°23' E 129°30'0 0.0
2019-Dec-31 17:30N 28°23' E 129°30'  
Track history (hours):
 
Tides and Currents Weather Stations Pressure Air Temp Water Temp Dewpoint Dewpoint Depression Visibility Wind Speed Wind Dir Waves Ship Positions

Oceanographic research ship Nagasaki Maru (Japan)

Detailed information on ship capabilities available from University of Delaware's Ocean Information Center.

Last reported at 2020-Jan-10 16:30 UTC. Time now 2020-Jan-22 08:55 UTC.
Position N 33°43' E 129°60'.
Warning: this ship's position is 11 days out of date.

Length 63 m; beam 11 m.

Type: Fishing. MMSI: 431397000.

Date/timePositionNaut miles runAvg speedWind from/ knotsBaromVisibWave heightAir tempDewpointWater temp
2020-Jan-10 16:30N 33°43' E 129°60'11 9.2
2020-Jan-10 15:15N 33°39' E 129°47'117 8.5
2020-Jan-10 01:30N 31°47' E 129°08'3210.5
2020-Jan-09 22:30N 31°16' E 129°00'  
2020-Jan-07 14:46N 28°30' E 129°43'0 0.0
2020-Jan-07 13:46N 28°30' E 129°43'0 0.0
2020-Jan-07 12:16N 28°30' E 129°43'0 0.0
2020-Jan-07 11:16N 28°30' E 129°43'0 0.0
2020-Jan-07 10:16N 28°30' E 129°43'0 0.0
2020-Jan-07 09:16N 28°30' E 129°43'7 4.3
2020-Jan-07 07:46N 28°31' E 129°36'810.5
2020-Jan-07 07:01N 28°24' E 129°30'1 0.7
2020-Jan-07 06:01N 28°24' E 129°30'0 0.0
2020-Jan-07 05:16N 28°24' E 129°30'0 0.0
2020-Jan-07 03:46N 28°24' E 129°30'0 0.0
2020-Jan-07 02:46N 28°24' E 129°30'0 0.0
2020-Jan-07 02:16N 28°24' E 129°30'0 0.0
2020-Jan-07 01:46N 28°24' E 129°30'0 0.0
2020-Jan-07 01:00N 28°24' E 129°30'0 0.0
2020-Jan-07 00:30N 28°24' E 129°30'0 0.0
2020-Jan-06 23:31N 28°24' E 129°30'0 0.0
2020-Jan-06 23:00N 28°24' E 129°30'0 0.0
2020-Jan-06 20:45N 28°24' E 129°30'0 0.0
2020-Jan-06 19:15N 28°24' E 129°30'0 0.0
2020-Jan-06 19:00N 28°24' E 129°30'0 0.0
2020-Jan-06 16:30N 28°24' E 129°30'0 0.0
2020-Jan-06 15:45N 28°24' E 129°30'0 0.0
2020-Jan-06 14:46N 28°24' E 129°30'0 0.0
2020-Jan-06 08:31N 28°24' E 129°30'0 0.0
2020-Jan-05 23:17N 28°24' E 129°30'0 0.0
2020-Jan-05 22:47N 28°24' E 129°30'0 0.0
2020-Jan-05 21:31N 28°24' E 129°30'0 0.0
2020-Jan-05 14:46N 28°24' E 129°30'0 0.0
2020-Jan-05 12:46N 28°24' E 129°30'0 0.0
2020-Jan-05 11:46N 28°24' E 129°30'0 0.0
2020-Jan-05 10:16N 28°24' E 129°30'0 0.0
2020-Jan-05 09:16N 28°24' E 129°30'0 0.0
2020-Jan-05 08:46N 28°24' E 129°30'0 0.0
2020-Jan-05 07:16N 28°24' E 129°30'0 0.0
2020-Jan-05 06:46N 28°24' E 129°30'0 0.0
2020-Jan-05 05:46N 28°24' E 129°30'0 0.0
2020-Jan-05 05:16N 28°24' E 129°30'0 0.0
2020-Jan-04 20:31N 28°24' E 129°30'0 0.0
2020-Jan-04 20:16N 28°24' E 129°30'0 0.0
2020-Jan-04 19:01N 28°24' E 129°30'0 0.0
2020-Jan-04 16:46N 28°24' E 129°30'0 0.0
2020-Jan-04 15:32N 28°24' E 129°30'0 0.0
2020-Jan-04 14:46N 28°24' E 129°30'0 0.0
2020-Jan-04 09:47N 28°24' E 129°30'0 0.0
2020-Jan-04 08:01N 28°24' E 129°30'0 0.0
2020-Jan-04 07:31N 28°24' E 129°30'0 0.0
2020-Jan-04 06:46N 28°24' E 129°30'0 0.0
2020-Jan-04 04:32N 28°24' E 129°30'0 0.0
2020-Jan-04 04:16N 28°24' E 129°30'0 0.0
2020-Jan-04 02:32N 28°24' E 129°30'0 0.0
2020-Jan-03 20:46N 28°24' E 129°30'0 0.0
2020-Jan-03 18:46N 28°24' E 129°30'0 0.0
2020-Jan-03 13:16N 28°24' E 129°30'0 0.0
2020-Jan-03 11:31N 28°24' E 129°30'0 0.0
2020-Jan-03 10:01N 28°24' E 129°30'0 0.0
2020-Jan-03 08:46N 28°24' E 129°30'0 0.0
2020-Jan-03 07:16N 28°24' E 129°30'0 0.0
2020-Jan-03 05:01N 28°24' E 129°30'0 0.0
2020-Jan-03 03:31N 28°24' E 129°30'0 0.0
2020-Jan-02 23:46N 28°24' E 129°30'0 0.0
2020-Jan-02 21:01N 28°24' E 129°30'0 0.0
2020-Jan-02 20:46N 28°24' E 129°30'0 0.0
2020-Jan-02 20:00N 28°24' E 129°30'0 0.0
2020-Jan-02 14:01N 28°24' E 129°30'0 0.0
2020-Jan-02 13:31N 28°24' E 129°30'0 0.0
2020-Jan-02 10:16N 28°24' E 129°30'0 0.0
2020-Jan-02 07:31N 28°24' E 129°30'0 0.0
2020-Jan-02 07:01N 28°24' E 129°30'0 0.0
2020-Jan-02 05:01N 28°24' E 129°30'0 0.0
2020-Jan-02 00:16N 28°24' E 129°30'1 0.1
2020-Jan-01 20:31N 28°23' E 129°30'0 0.0
2020-Jan-01 19:01N 28°23' E 129°30'0 0.0
2020-Jan-01 18:16N 28°23' E 129°30'0 0.0
2020-Jan-01 17:46N 28°23' E 129°30'0 0.0
2020-Jan-01 14:46N 28°23' E 129°30'0 0.0
2020-Jan-01 12:31N 28°23' E 129°30'0 0.0
2020-Jan-01 11:31N 28°23' E 129°30'0 0.0
2020-Jan-01 11:16N 28°23' E 129°30'0 0.0
2020-Jan-01 09:31N 28°23' E 129°30'0 0.0
2020-Jan-01 08:16N 28°23' E 129°30'0 0.0
2020-Jan-01 07:16N 28°23' E 129°30'0 0.0
2020-Jan-01 03:16N 28°23' E 129°30'0 0.0
2020-Jan-01 02:01N 28°23' E 129°30'0 0.0
2019-Dec-31 23:30N 28°23' E 129°30'0 0.0
2019-Dec-31 22:00N 28°23' E 129°30'0 0.0
2019-Dec-31 21:00N 28°23' E 129°30'0 0.0
2019-Dec-31 20:30N 28°23' E 129°30'0 0.0
2019-Dec-31 18:30N 28°23' E 129°30'0 0.0
2019-Dec-31 18:00N 28°23' E 129°30'0 0.0
2019-Dec-31 17:30N 28°23' E 129°30'  

Dump ship's entire track history